sensor_id;sensor_type;location;lat;lon;timestamp;P1;durP1;ratioP1;P2;durP2;ratioP2
15573;SDS011;7888;46.748;8.102;2023-02-01T00:02:18;1.70;;;1.53;;
15573;SDS011;7888;46.748;8.102;2023-02-01T00:04:43;1.83;;;1.40;;
15573;SDS011;7888;46.748;8.102;2023-02-01T00:07:09;1.60;;;1.30;;
15573;SDS011;7888;46.748;8.102;2023-02-01T00:09:35;2.37;;;1.63;;
15573;SDS011;7888;46.748;8.102;2023-02-01T00:12:01;3.27;;;1.30;;
15573;SDS011;7888;46.748;8.102;2023-02-01T00:14:28;1.53;;;1.40;;
15573;SDS011;7888;46.748;8.102;2023-02-01T00:16:54;2.23;;;1.23;;
15573;SDS011;7888;46.748;8.102;2023-02-01T00:19:20;1.87;;;1.43;;
15573;SDS011;7888;46.748;8.102;2023-02-01T00:21:46;1.50;;;1.03;;
15573;SDS011;7888;46.748;8.102;2023-02-01T00:24:12;1.70;;;1.20;;
15573;SDS011;7888;46.748;8.102;2023-02-01T00:26:39;1.80;;;1.10;;
15573;SDS011;7888;46.748;8.102;2023-02-01T00:29:12;2.10;;;1.30;;
15573;SDS011;7888;46.748;8.102;2023-02-01T00:31:43;1.83;;;1.40;;
15573;SDS011;7888;46.748;8.102;2023-02-01T00:34:13;2.23;;;1.43;;
15573;SDS011;7888;46.748;8.102;2023-02-01T00:36:41;1.93;;;1.50;;
15573;SDS011;7888;46.748;8.102;2023-02-01T00:39:09;1.47;;;1.30;;
15573;SDS011;7888;46.748;8.102;2023-02-01T00:41:36;1.30;;;1.10;;
15573;SDS011;7888;46.748;8.102;2023-02-01T00:44:02;1.10;;;1.00;;
15573;SDS011;7888;46.748;8.102;2023-02-01T00:46:28;1.47;;;1.00;;
15573;SDS011;7888;46.748;8.102;2023-02-01T00:48:54;1.60;;;1.27;;
15573;SDS011;7888;46.748;8.102;2023-02-01T00:51:21;1.70;;;1.43;;
15573;SDS011;7888;46.748;8.102;2023-02-01T00:53:51;1.63;;;1.43;;
15573;SDS011;7888;46.748;8.102;2023-02-01T00:56:17;1.97;;;1.20;;
15573;SDS011;7888;46.748;8.102;2023-02-01T00:58:43;1.37;;;1.27;;
15573;SDS011;7888;46.748;8.102;2023-02-01T01:01:16;1.77;;;1.30;;
15573;SDS011;7888;46.748;8.102;2023-02-01T01:03:51;2.63;;;1.53;;
15573;SDS011;7888;46.748;8.102;2023-02-01T01:06:22;2.37;;;1.50;;
15573;SDS011;7888;46.748;8.102;2023-02-01T01:08:52;1.73;;;1.60;;
15573;SDS011;7888;46.748;8.102;2023-02-01T01:11:20;2.23;;;1.83;;
15573;SDS011;7888;46.748;8.102;2023-02-01T01:13:50;1.47;;;1.37;;
15573;SDS011;7888;46.748;8.102;2023-02-01T01:16:18;1.50;;;1.23;;
15573;SDS011;7888;46.748;8.102;2023-02-01T01:18:46;2.00;;;1.50;;
15573;SDS011;7888;46.748;8.102;2023-02-01T01:21:13;1.53;;;1.30;;
15573;SDS011;7888;46.748;8.102;2023-02-01T01:23:41;2.03;;;1.57;;
15573;SDS011;7888;46.748;8.102;2023-02-01T01:26:09;1.70;;;1.47;;
15573;SDS011;7888;46.748;8.102;2023-02-01T01:28:39;1.93;;;1.27;;
15573;SDS011;7888;46.748;8.102;2023-02-01T01:31:09;1.70;;;1.60;;
15573;SDS011;7888;46.748;8.102;2023-02-01T01:33:37;2.00;;;1.50;;
15573;SDS011;7888;46.748;8.102;2023-02-01T01:36:06;1.77;;;1.67;;
15573;SDS011;7888;46.748;8.102;2023-02-01T01:38:37;2.30;;;1.70;;
15573;SDS011;7888;46.748;8.102;2023-02-01T01:41:05;2.73;;;1.70;;
15573;SDS011;7888;46.748;8.102;2023-02-01T01:46:35;1.90;;;1.63;;
15573;SDS011;7888;46.748;8.102;2023-02-01T01:49:05;1.77;;;1.53;;
15573;SDS011;7888;46.748;8.102;2023-02-01T01:52:07;2.30;;;1.93;;
15573;SDS011;7888;46.748;8.102;2023-02-01T01:54:51;2.70;;;1.60;;
15573;SDS011;7888;46.748;8.102;2023-02-01T01:57:24;1.90;;;1.50;;
15573;SDS011;7888;46.748;8.102;2023-02-01T02:00:05;3.00;;;1.70;;
15573;SDS011;7888;46.748;8.102;2023-02-01T02:02:35;2.43;;;1.80;;
15573;SDS011;7888;46.748;8.102;2023-02-01T02:05:03;2.50;;;2.07;;
15573;SDS011;7888;46.748;8.102;2023-02-01T02:07:30;1.93;;;1.73;;
15573;SDS011;7888;46.748;8.102;2023-02-01T02:10:03;2.40;;;2.00;;
15573;SDS011;7888;46.748;8.102;2023-02-01T02:12:35;2.47;;;1.80;;
15573;SDS011;7888;46.748;8.102;2023-02-01T02:15:09;2.40;;;1.97;;
15573;SDS011;7888;46.748;8.102;2023-02-01T02:17:55;2.17;;;1.70;;
15573;SDS011;7888;46.748;8.102;2023-02-01T02:26:34;2.40;;;1.80;;
15573;SDS011;7888;46.748;8.102;2023-02-01T02:35:09;1.90;;;1.70;;
15573;SDS011;7888;46.748;8.102;2023-02-01T02:40:35;2.53;;;1.90;;
15573;SDS011;7888;46.748;8.102;2023-02-01T02:49:22;3.20;;;2.40;;
15573;SDS011;7888;46.748;8.102;2023-02-01T02:52:01;3.03;;;2.33;;
15573;SDS011;7888;46.748;8.102;2023-02-01T02:54:53;3.40;;;2.10;;
15573;SDS011;7888;46.748;8.102;2023-02-01T02:57:23;2.50;;;2.13;;
15573;SDS011;7888;46.748;8.102;2023-02-01T03:00:21;2.10;;;1.90;;
15573;SDS011;7888;46.748;8.102;2023-02-01T03:03:12;2.97;;;2.13;;
15573;SDS011;7888;46.748;8.102;2023-02-01T03:05:57;2.10;;;1.90;;
15573;SDS011;7888;46.748;8.102;2023-02-01T03:08:23;2.73;;;2.20;;
15573;SDS011;7888;46.748;8.102;2023-02-01T03:11:07;2.70;;;2.13;;
15573;SDS011;7888;46.748;8.102;2023-02-01T03:13:38;2.80;;;2.40;;
15573;SDS011;7888;46.748;8.102;2023-02-01T03:19:08;2.43;;;2.03;;
15573;SDS011;7888;46.748;8.102;2023-02-01T03:21:48;2.37;;;2.00;;
15573;SDS011;7888;46.748;8.102;2023-02-01T03:24:23;1.60;;;1.50;;
15573;SDS011;7888;46.748;8.102;2023-02-01T03:27:14;1.87;;;1.30;;
15573;SDS011;7888;46.748;8.102;2023-02-01T03:29:49;1.50;;;1.30;;
15573;SDS011;7888;46.748;8.102;2023-02-01T03:32:27;1.80;;;1.50;;
15573;SDS011;7888;46.748;8.102;2023-02-01T03:34:54;2.57;;;1.80;;
15573;SDS011;7888;46.748;8.102;2023-02-01T03:37:24;6.40;;;1.73;;
15573;SDS011;7888;46.748;8.102;2023-02-01T03:40:04;1.90;;;1.53;;
15573;SDS011;7888;46.748;8.102;2023-02-01T03:42:43;2.03;;;1.83;;
15573;SDS011;7888;46.748;8.102;2023-02-01T03:45:31;2.53;;;1.50;;
15573;SDS011;7888;46.748;8.102;2023-02-01T03:48:06;1.63;;;1.50;;
15573;SDS011;7888;46.748;8.102;2023-02-01T03:50:35;2.70;;;1.80;;
15573;SDS011;7888;46.748;8.102;2023-02-01T03:53:07;2.23;;;1.83;;
15573;SDS011;7888;46.748;8.102;2023-02-01T03:55:39;2.57;;;2.00;;
15573;SDS011;7888;46.748;8.102;2023-02-01T03:58:09;1.97;;;1.53;;
15573;SDS011;7888;46.748;8.102;2023-02-01T04:00:37;1.50;;;1.40;;
15573;SDS011;7888;46.748;8.102;2023-02-01T04:03:05;2.73;;;1.80;;
15573;SDS011;7888;46.748;8.102;2023-02-01T04:05:32;2.83;;;2.00;;
15573;SDS011;7888;46.748;8.102;2023-02-01T04:07:59;2.40;;;1.70;;
15573;SDS011;7888;46.748;8.102;2023-02-01T04:10:25;1.57;;;1.47;;
15573;SDS011;7888;46.748;8.102;2023-02-01T04:12:51;1.93;;;1.67;;
15573;SDS011;7888;46.748;8.102;2023-02-01T04:15:17;2.27;;;1.90;;
15573;SDS011;7888;46.748;8.102;2023-02-01T04:17:44;2.27;;;2.00;;
15573;SDS011;7888;46.748;8.102;2023-02-01T04:20:10;2.27;;;1.60;;
15573;SDS011;7888;46.748;8.102;2023-02-01T04:22:36;2.33;;;1.93;;
15573;SDS011;7888;46.748;8.102;2023-02-01T04:25:02;2.57;;;2.20;;
15573;SDS011;7888;46.748;8.102;2023-02-01T04:27:30;2.90;;;2.30;;
15573;SDS011;7888;46.748;8.102;2023-02-01T04:29:56;2.57;;;2.00;;
15573;SDS011;7888;46.748;8.102;2023-02-01T04:32:22;2.50;;;2.00;;
15573;SDS011;7888;46.748;8.102;2023-02-01T04:34:48;3.20;;;2.07;;
15573;SDS011;7888;46.748;8.102;2023-02-01T04:37:14;2.87;;;2.00;;
15573;SDS011;7888;46.748;8.102;2023-02-01T04:39:40;2.40;;;1.93;;
15573;SDS011;7888;46.748;8.102;2023-02-01T04:42:05;2.30;;;2.00;;
15573;SDS011;7888;46.748;8.102;2023-02-01T04:44:31;3.00;;;2.27;;
15573;SDS011;7888;46.748;8.102;2023-02-01T04:46:57;2.43;;;2.23;;
15573;SDS011;7888;46.748;8.102;2023-02-01T04:49:23;2.10;;;1.90;;
15573;SDS011;7888;46.748;8.102;2023-02-01T04:51:51;3.90;;;1.90;;
15573;SDS011;7888;46.748;8.102;2023-02-01T04:54:17;4.13;;;2.10;;
15573;SDS011;7888;46.748;8.102;2023-02-01T04:56:43;2.73;;;2.27;;
15573;SDS011;7888;46.748;8.102;2023-02-01T04:59:10;2.87;;;2.50;;
15573;SDS011;7888;46.748;8.102;2023-02-01T05:01:36;4.30;;;3.07;;
15573;SDS011;7888;46.748;8.102;2023-02-01T05:04:02;4.23;;;3.10;;
15573;SDS011;7888;46.748;8.102;2023-02-01T05:06:29;3.27;;;2.60;;
15573;SDS011;7888;46.748;8.102;2023-02-01T05:08:55;4.47;;;2.97;;
15573;SDS011;7888;46.748;8.102;2023-02-01T05:11:20;4.73;;;3.30;;
15573;SDS011;7888;46.748;8.102;2023-02-01T05:14:05;4.90;;;3.90;;
15573;SDS011;7888;46.748;8.102;2023-02-01T05:16:31;3.63;;;3.27;;
15573;SDS011;7888;46.748;8.102;2023-02-01T05:18:57;3.57;;;3.07;;
15573;SDS011;7888;46.748;8.102;2023-02-01T05:21:23;3.60;;;2.80;;
15573;SDS011;7888;46.748;8.102;2023-02-01T05:23:49;4.67;;;3.60;;
15573;SDS011;7888;46.748;8.102;2023-02-01T05:26:34;4.17;;;3.10;;
15573;SDS011;7888;46.748;8.102;2023-02-01T05:29:01;2.97;;;2.70;;
15573;SDS011;7888;46.748;8.102;2023-02-01T05:31:28;4.47;;;3.33;;
15573;SDS011;7888;46.748;8.102;2023-02-01T05:33:54;6.73;;;5.30;;
15573;SDS011;7888;46.748;8.102;2023-02-01T05:36:20;6.57;;;4.93;;
15573;SDS011;7888;46.748;8.102;2023-02-01T05:38:46;5.50;;;4.20;;
15573;SDS011;7888;46.748;8.102;2023-02-01T05:41:12;6.73;;;5.27;;
15573;SDS011;7888;46.748;8.102;2023-02-01T05:43:38;8.23;;;6.40;;
15573;SDS011;7888;46.748;8.102;2023-02-01T05:46:04;22.10;;;14.17;;
15573;SDS011;7888;46.748;8.102;2023-02-01T05:48:30;12.43;;;9.00;;
15573;SDS011;7888;46.748;8.102;2023-02-01T05:50:55;11.10;;;8.40;;
15573;SDS011;7888;46.748;8.102;2023-02-01T05:53:21;13.77;;;8.77;;
15573;SDS011;7888;46.748;8.102;2023-02-01T05:55:47;6.90;;;6.00;;
15573;SDS011;7888;46.748;8.102;2023-02-01T05:58:13;5.23;;;4.73;;
15573;SDS011;7888;46.748;8.102;2023-02-01T06:00:39;5.50;;;4.47;;
15573;SDS011;7888;46.748;8.102;2023-02-01T06:03:05;3.90;;;3.50;;
15573;SDS011;7888;46.748;8.102;2023-02-01T06:05:32;4.77;;;2.97;;
15573;SDS011;7888;46.748;8.102;2023-02-01T06:07:58;4.90;;;3.73;;
15573;SDS011;7888;46.748;8.102;2023-02-01T06:10:24;7.33;;;3.90;;
15573;SDS011;7888;46.748;8.102;2023-02-01T06:12:50;22.40;;;12.70;;
15573;SDS011;7888;46.748;8.102;2023-02-01T06:15:15;6.77;;;4.90;;
15573;SDS011;7888;46.748;8.102;2023-02-01T06:17:43;3.60;;;2.60;;
15573;SDS011;7888;46.748;8.102;2023-02-01T06:20:11;2.90;;;2.23;;
15573;SDS011;7888;46.748;8.102;2023-02-01T06:22:39;3.27;;;1.90;;
15573;SDS011;7888;46.748;8.102;2023-02-01T06:25:06;2.73;;;2.43;;
15573;SDS011;7888;46.748;8.102;2023-02-01T06:27:34;3.87;;;2.17;;
15573;SDS011;7888;46.748;8.102;2023-02-01T06:30:01;2.50;;;1.90;;
15573;SDS011;7888;46.748;8.102;2023-02-01T06:32:30;1.77;;;1.63;;
15573;SDS011;7888;46.748;8.102;2023-02-01T06:34:55;2.07;;;1.70;;
15573;SDS011;7888;46.748;8.102;2023-02-01T06:37:22;2.93;;;2.33;;
15573;SDS011;7888;46.748;8.102;2023-02-01T06:39:50;3.60;;;2.87;;
15573;SDS011;7888;46.748;8.102;2023-02-01T06:42:16;3.50;;;2.63;;
15573;SDS011;7888;46.748;8.102;2023-02-01T06:44:42;4.33;;;3.53;;
15573;SDS011;7888;46.748;8.102;2023-02-01T06:47:07;3.80;;;3.27;;
15573;SDS011;7888;46.748;8.102;2023-02-01T06:49:33;5.20;;;4.70;;
15573;SDS011;7888;46.748;8.102;2023-02-01T06:51:59;7.73;;;5.77;;
15573;SDS011;7888;46.748;8.102;2023-02-01T06:54:25;10.47;;;6.47;;
15573;SDS011;7888;46.748;8.102;2023-02-01T06:56:52;9.77;;;6.00;;
15573;SDS011;7888;46.748;8.102;2023-02-01T06:59:18;7.27;;;5.50;;
15573;SDS011;7888;46.748;8.102;2023-02-01T07:01:44;6.50;;;4.73;;
15573;SDS011;7888;46.748;8.102;2023-02-01T07:04:10;7.40;;;4.80;;
15573;SDS011;7888;46.748;8.102;2023-02-01T07:06:37;6.87;;;4.50;;
15573;SDS011;7888;46.748;8.102;2023-02-01T07:09:06;7.10;;;5.20;;
15573;SDS011;7888;46.748;8.102;2023-02-01T07:11:33;6.57;;;5.13;;
15573;SDS011;7888;46.748;8.102;2023-02-01T07:13:59;8.10;;;5.47;;
15573;SDS011;7888;46.748;8.102;2023-02-01T07:16:25;6.60;;;5.60;;
15573;SDS011;7888;46.748;8.102;2023-02-01T07:18:52;3.83;;;2.93;;
15573;SDS011;7888;46.748;8.102;2023-02-01T07:21:18;4.97;;;3.03;;
15573;SDS011;7888;46.748;8.102;2023-02-01T07:23:45;2.97;;;2.60;;
15573;SDS011;7888;46.748;8.102;2023-02-01T07:26:12;4.67;;;3.00;;
15573;SDS011;7888;46.748;8.102;2023-02-01T07:28:39;4.27;;;2.57;;
15573;SDS011;7888;46.748;8.102;2023-02-01T07:31:06;3.43;;;2.27;;
15573;SDS011;7888;46.748;8.102;2023-02-01T07:33:43;6.10;;;4.47;;
15573;SDS011;7888;46.748;8.102;2023-02-01T07:36:13;6.70;;;5.50;;
15573;SDS011;7888;46.748;8.102;2023-02-01T07:38:41;8.30;;;6.07;;
15573;SDS011;7888;46.748;8.102;2023-02-01T07:41:07;7.17;;;5.47;;
15573;SDS011;7888;46.748;8.102;2023-02-01T07:43:34;11.00;;;8.47;;
15573;SDS011;7888;46.748;8.102;2023-02-01T07:46:01;13.43;;;9.77;;
15573;SDS011;7888;46.748;8.102;2023-02-01T07:48:29;5.70;;;4.50;;
15573;SDS011;7888;46.748;8.102;2023-02-01T07:50:57;4.13;;;3.00;;
15573;SDS011;7888;46.748;8.102;2023-02-01T07:53:28;3.43;;;2.60;;
15573;SDS011;7888;46.748;8.102;2023-02-01T07:55:56;2.80;;;2.20;;
15573;SDS011;7888;46.748;8.102;2023-02-01T07:58:22;2.67;;;2.00;;
15573;SDS011;7888;46.748;8.102;2023-02-01T08:00:49;2.17;;;1.90;;
15573;SDS011;7888;46.748;8.102;2023-02-01T08:03:33;2.03;;;1.47;;
15573;SDS011;7888;46.748;8.102;2023-02-01T08:05:59;1.57;;;1.23;;
15573;SDS011;7888;46.748;8.102;2023-02-01T08:08:25;1.43;;;1.33;;
15573;SDS011;7888;46.748;8.102;2023-02-01T08:10:51;1.97;;;1.53;;
15573;SDS011;7888;46.748;8.102;2023-02-01T08:13:22;2.63;;;1.87;;
15573;SDS011;7888;46.748;8.102;2023-02-01T08:15:48;1.90;;;1.50;;
15573;SDS011;7888;46.748;8.102;2023-02-01T08:18:13;2.13;;;1.60;;
15573;SDS011;7888;46.748;8.102;2023-02-01T08:20:41;1.60;;;1.40;;
15573;SDS011;7888;46.748;8.102;2023-02-01T08:23:10;2.00;;;1.80;;
15573;SDS011;7888;46.748;8.102;2023-02-01T08:25:37;2.70;;;1.33;;
15573;SDS011;7888;46.748;8.102;2023-02-01T08:28:04;1.97;;;1.60;;
15573;SDS011;7888;46.748;8.102;2023-02-01T08:30:31;1.70;;;1.53;;
15573;SDS011;7888;46.748;8.102;2023-02-01T08:32:57;2.03;;;1.50;;
15573;SDS011;7888;46.748;8.102;2023-02-01T08:35:23;2.87;;;1.40;;
15573;SDS011;7888;46.748;8.102;2023-02-01T08:37:49;3.43;;;1.33;;
15573;SDS011;7888;46.748;8.102;2023-02-01T08:40:15;1.57;;;1.20;;
15573;SDS011;7888;46.748;8.102;2023-02-01T08:42:42;1.97;;;1.30;;
15573;SDS011;7888;46.748;8.102;2023-02-01T08:45:21;2.13;;;1.30;;
15573;SDS011;7888;46.748;8.102;2023-02-01T08:47:51;1.57;;;1.20;;
15573;SDS011;7888;46.748;8.102;2023-02-01T08:50:18;2.00;;;1.10;;
15573;SDS011;7888;46.748;8.102;2023-02-01T08:52:45;1.93;;;1.30;;
15573;SDS011;7888;46.748;8.102;2023-02-01T08:55:12;1.50;;;1.27;;
15573;SDS011;7888;46.748;8.102;2023-02-01T08:57:39;1.47;;;1.20;;
15573;SDS011;7888;46.748;8.102;2023-02-01T09:00:07;1.73;;;1.40;;
15573;SDS011;7888;46.748;8.102;2023-02-01T09:02:37;1.60;;;1.30;;
15573;SDS011;7888;46.748;8.102;2023-02-01T09:05:04;1.70;;;1.17;;
15573;SDS011;7888;46.748;8.102;2023-02-01T09:07:31;1.83;;;1.33;;
15573;SDS011;7888;46.748;8.102;2023-02-01T09:09:58;2.17;;;1.37;;
15573;SDS011;7888;46.748;8.102;2023-02-01T09:12:26;1.53;;;1.20;;
15573;SDS011;7888;46.748;8.102;2023-02-01T09:14:55;1.57;;;1.10;;
15573;SDS011;7888;46.748;8.102;2023-02-01T09:17:24;1.33;;;1.07;;
15573;SDS011;7888;46.748;8.102;2023-02-01T09:19:54;1.70;;;1.37;;
15573;SDS011;7888;46.748;8.102;2023-02-01T09:22:20;1.63;;;1.20;;
15573;SDS011;7888;46.748;8.102;2023-02-01T09:24:46;1.60;;;1.33;;
15573;SDS011;7888;46.748;8.102;2023-02-01T09:27:15;1.50;;;1.30;;
15573;SDS011;7888;46.748;8.102;2023-02-01T09:29:40;2.10;;;1.53;;
15573;SDS011;7888;46.748;8.102;2023-02-01T09:32:06;1.60;;;1.50;;
15573;SDS011;7888;46.748;8.102;2023-02-01T09:34:32;2.10;;;1.40;;
15573;SDS011;7888;46.748;8.102;2023-02-01T09:36:59;2.30;;;1.30;;
15573;SDS011;7888;46.748;8.102;2023-02-01T09:39:24;1.80;;;1.23;;
15573;SDS011;7888;46.748;8.102;2023-02-01T09:45:14;1.40;;;1.10;;
15573;SDS011;7888;46.748;8.102;2023-02-01T09:48:14;1.43;;;1.27;;
15573;SDS011;7888;46.748;8.102;2023-02-01T09:50:45;2.00;;;1.20;;
15573;SDS011;7888;46.748;8.102;2023-02-01T09:58:59;1.83;;;1.17;;
15573;SDS011;7888;46.748;8.102;2023-02-01T10:01:44;1.50;;;1.20;;
15573;SDS011;7888;46.748;8.102;2023-02-01T10:04:11;2.03;;;1.50;;
15573;SDS011;7888;46.748;8.102;2023-02-01T10:21:40;1.73;;;1.40;;
15573;SDS011;7888;46.748;8.102;2023-02-01T10:29:58;1.87;;;1.67;;
15573;SDS011;7888;46.748;8.102;2023-02-01T10:32:32;2.80;;;1.50;;
15573;SDS011;7888;46.748;8.102;2023-02-01T10:35:08;3.33;;;1.53;;
15573;SDS011;7888;46.748;8.102;2023-02-01T10:37:48;4.37;;;1.90;;
15573;SDS011;7888;46.748;8.102;2023-02-01T10:40:17;2.33;;;1.93;;
15573;SDS011;7888;46.748;8.102;2023-02-01T10:42:50;3.17;;;2.07;;
15573;SDS011;7888;46.748;8.102;2023-02-01T10:45:22;2.83;;;2.33;;
15573;SDS011;7888;46.748;8.102;2023-02-01T10:47:54;2.50;;;2.30;;
15573;SDS011;7888;46.748;8.102;2023-02-01T10:53:48;2.40;;;2.20;;
15573;SDS011;7888;46.748;8.102;2023-02-01T10:55:54;6.40;;;2.50;;
15573;SDS011;7888;46.748;8.102;2023-02-01T10:58:28;3.50;;;2.37;;
15573;SDS011;7888;46.748;8.102;2023-02-01T11:01:00;2.93;;;2.00;;
15573;SDS011;7888;46.748;8.102;2023-02-01T11:03:41;5.13;;;2.40;;
15573;SDS011;7888;46.748;8.102;2023-02-01T11:11:33;2.33;;;2.07;;
15573;SDS011;7888;46.748;8.102;2023-02-01T11:14:21;2.57;;;2.07;;
15573;SDS011;7888;46.748;8.102;2023-02-01T11:19:45;4.33;;;2.30;;
15573;SDS011;7888;46.748;8.102;2023-02-01T11:22:34;2.50;;;2.20;;
15573;SDS011;7888;46.748;8.102;2023-02-01T11:25:01;2.10;;;1.90;;
15573;SDS011;7888;46.748;8.102;2023-02-01T11:27:34;2.03;;;1.83;;
15573;SDS011;7888;46.748;8.102;2023-02-01T11:30:00;3.50;;;2.73;;
15573;SDS011;7888;46.748;8.102;2023-02-01T11:32:29;3.40;;;2.50;;
15573;SDS011;7888;46.748;8.102;2023-02-01T11:34:57;3.87;;;2.43;;
15573;SDS011;7888;46.748;8.102;2023-02-01T11:37:30;2.40;;;2.10;;
15573;SDS011;7888;46.748;8.102;2023-02-01T11:42:58;3.73;;;2.10;;
15573;SDS011;7888;46.748;8.102;2023-02-01T11:45:32;2.43;;;1.93;;
15573;SDS011;7888;46.748;8.102;2023-02-01T11:48:02;3.63;;;2.30;;
15573;SDS011;7888;46.748;8.102;2023-02-01T11:50:45;2.43;;;2.23;;
15573;SDS011;7888;46.748;8.102;2023-02-01T12:11:50;3.00;;;2.20;;
15573;SDS011;7888;46.748;8.102;2023-02-01T12:23:42;1.90;;;1.57;;
15573;SDS011;7888;46.748;8.102;2023-02-01T12:32:07;7.07;;;2.93;;
15573;SDS011;7888;46.748;8.102;2023-02-01T12:43:49;2.00;;;1.80;;
15573;SDS011;7888;46.748;8.102;2023-02-01T12:49:02;3.37;;;2.60;;
15573;SDS011;7888;46.748;8.102;2023-02-01T12:51:43;2.67;;;2.30;;
15573;SDS011;7888;46.748;8.102;2023-02-01T12:57:14;2.50;;;2.30;;
15573;SDS011;7888;46.748;8.102;2023-02-01T12:59:54;2.93;;;2.40;;
15573;SDS011;7888;46.748;8.102;2023-02-01T13:02:42;2.10;;;1.90;;
15573;SDS011;7888;46.748;8.102;2023-02-01T13:05:51;1.83;;;1.73;;
15573;SDS011;7888;46.748;8.102;2023-02-01T13:08:35;2.60;;;2.40;;
15573;SDS011;7888;46.748;8.102;2023-02-01T13:11:27;2.50;;;2.30;;
15573;SDS011;7888;46.748;8.102;2023-02-01T13:16:51;3.63;;;1.70;;
15573;SDS011;7888;46.748;8.102;2023-02-01T13:22:23;2.23;;;1.70;;
15573;SDS011;7888;46.748;8.102;2023-02-01T13:27:35;1.87;;;1.57;;
15573;SDS011;7888;46.748;8.102;2023-02-01T13:45:34;1.60;;;1.30;;
15573;SDS011;7888;46.748;8.102;2023-02-01T13:47:47;2.00;;;1.47;;
15573;SDS011;7888;46.748;8.102;2023-02-01T13:50:21;2.07;;;1.83;;
15573;SDS011;7888;46.748;8.102;2023-02-01T13:52:51;1.67;;;1.57;;
15573;SDS011;7888;46.748;8.102;2023-02-01T13:55:32;2.50;;;1.37;;
15573;SDS011;7888;46.748;8.102;2023-02-01T13:58:19;1.23;;;1.10;;
15573;SDS011;7888;46.748;8.102;2023-02-01T14:03:47;1.40;;;1.30;;
15573;SDS011;7888;46.748;8.102;2023-02-01T14:09:11;1.80;;;1.70;;
15573;SDS011;7888;46.748;8.102;2023-02-01T14:11:57;2.50;;;1.60;;
15573;SDS011;7888;46.748;8.102;2023-02-01T14:14:43;2.40;;;1.60;;
15573;SDS011;7888;46.748;8.102;2023-02-01T14:17:28;1.70;;;1.57;;
15573;SDS011;7888;46.748;8.102;2023-02-01T14:20:42;1.63;;;1.30;;
15573;SDS011;7888;46.748;8.102;2023-02-01T14:23:17;1.83;;;1.70;;
15573;SDS011;7888;46.748;8.102;2023-02-01T14:25:46;2.30;;;2.00;;
15573;SDS011;7888;46.748;8.102;2023-02-01T14:28:28;2.10;;;1.90;;
15573;SDS011;7888;46.748;8.102;2023-02-01T14:30:56;1.47;;;1.37;;
15573;SDS011;7888;46.748;8.102;2023-02-01T14:33:24;2.70;;;1.57;;
15573;SDS011;7888;46.748;8.102;2023-02-01T14:38:32;3.83;;;1.63;;
15573;SDS011;7888;46.748;8.102;2023-02-01T14:49:38;2.83;;;1.37;;
15573;SDS011;7888;46.748;8.102;2023-02-01T14:55:29;1.30;;;1.20;;
15573;SDS011;7888;46.748;8.102;2023-02-01T15:01:35;1.47;;;1.20;;
15573;SDS011;7888;46.748;8.102;2023-02-01T15:04:15;1.50;;;1.37;;
15573;SDS011;7888;46.748;8.102;2023-02-01T15:06:44;1.70;;;1.33;;
15573;SDS011;7888;46.748;8.102;2023-02-01T15:09:20;1.47;;;1.17;;
15573;SDS011;7888;46.748;8.102;2023-02-01T15:17:20;1.47;;;1.30;;
15573;SDS011;7888;46.748;8.102;2023-02-01T15:19:56;1.93;;;1.30;;
15573;SDS011;7888;46.748;8.102;2023-02-01T15:22:25;2.90;;;1.50;;
15573;SDS011;7888;46.748;8.102;2023-02-01T15:24:59;1.73;;;1.20;;
15573;SDS011;7888;46.748;8.102;2023-02-01T15:27:26;1.63;;;1.30;;
15573;SDS011;7888;46.748;8.102;2023-02-01T15:29:54;1.33;;;1.23;;
15573;SDS011;7888;46.748;8.102;2023-02-01T15:32:31;1.60;;;1.33;;
15573;SDS011;7888;46.748;8.102;2023-02-01T15:35:01;1.30;;;1.20;;
15573;SDS011;7888;46.748;8.102;2023-02-01T15:37:27;1.37;;;1.27;;
15573;SDS011;7888;46.748;8.102;2023-02-01T15:42:58;2.63;;;1.57;;
15573;SDS011;7888;46.748;8.102;2023-02-01T15:45:28;4.73;;;2.20;;
15573;SDS011;7888;46.748;8.102;2023-02-01T15:47:58;5.03;;;2.00;;
15573;SDS011;7888;46.748;8.102;2023-02-01T15:50:25;4.23;;;2.50;;
15573;SDS011;7888;46.748;8.102;2023-02-01T15:52:58;3.03;;;1.60;;
15573;SDS011;7888;46.748;8.102;2023-02-01T15:55:59;4.10;;;1.67;;
15573;SDS011;7888;46.748;8.102;2023-02-01T15:58:20;3.60;;;1.60;;
15573;SDS011;7888;46.748;8.102;2023-02-01T16:05:59;2.23;;;1.67;;
15573;SDS011;7888;46.748;8.102;2023-02-01T16:08:31;2.77;;;1.60;;
15573;SDS011;7888;46.748;8.102;2023-02-01T16:11:00;3.40;;;1.80;;
15573;SDS011;7888;46.748;8.102;2023-02-01T16:13:47;5.80;;;1.70;;
15573;SDS011;7888;46.748;8.102;2023-02-01T16:16:14;2.33;;;1.40;;
15573;SDS011;7888;46.748;8.102;2023-02-01T16:18:40;4.07;;;1.40;;
15573;SDS011;7888;46.748;8.102;2023-02-01T16:21:07;3.33;;;1.33;;
15573;SDS011;7888;46.748;8.102;2023-02-01T16:23:34;2.57;;;1.50;;
15573;SDS011;7888;46.748;8.102;2023-02-01T16:26:01;3.30;;;1.50;;
15573;SDS011;7888;46.748;8.102;2023-02-01T16:28:28;2.10;;;1.40;;
15573;SDS011;7888;46.748;8.102;2023-02-01T16:30:54;2.30;;;1.30;;
15573;SDS011;7888;46.748;8.102;2023-02-01T16:33:20;2.13;;;1.70;;
15573;SDS011;7888;46.748;8.102;2023-02-01T16:35:48;3.20;;;1.60;;
15573;SDS011;7888;46.748;8.102;2023-02-01T16:38:15;1.77;;;1.37;;
15573;SDS011;7888;46.748;8.102;2023-02-01T16:40:46;3.87;;;2.83;;
15573;SDS011;7888;46.748;8.102;2023-02-01T16:43:17;2.20;;;1.97;;
15573;SDS011;7888;46.748;8.102;2023-02-01T16:45:46;1.33;;;1.00;;
15573;SDS011;7888;46.748;8.102;2023-02-01T16:48:26;1.00;;;0.70;;
15573;SDS011;7888;46.748;8.102;2023-02-01T16:50:57;0.80;;;0.80;;
15573;SDS011;7888;46.748;8.102;2023-02-01T16:53:26;2.00;;;0.80;;
15573;SDS011;7888;46.748;8.102;2023-02-01T16:55:55;0.80;;;0.80;;
15573;SDS011;7888;46.748;8.102;2023-02-01T16:58:22;0.93;;;0.60;;
15573;SDS011;7888;46.748;8.102;2023-02-01T17:00:50;0.80;;;0.80;;
15573;SDS011;7888;46.748;8.102;2023-02-01T17:03:17;1.60;;;0.80;;
15573;SDS011;7888;46.748;8.102;2023-02-01T17:05:48;1.03;;;0.87;;
15573;SDS011;7888;46.748;8.102;2023-02-01T17:08:29;1.00;;;0.90;;
15573;SDS011;7888;46.748;8.102;2023-02-01T17:11:01;1.40;;;0.90;;
15573;SDS011;7888;46.748;8.102;2023-02-01T17:13:29;1.03;;;0.87;;
15573;SDS011;7888;46.748;8.102;2023-02-01T17:16:06;1.07;;;0.97;;
15573;SDS011;7888;46.748;8.102;2023-02-01T17:18:59;0.93;;;0.83;;
15573;SDS011;7888;46.748;8.102;2023-02-01T17:21:34;2.17;;;1.40;;
15573;SDS011;7888;46.748;8.102;2023-02-01T17:24:12;4.47;;;2.67;;
15573;SDS011;7888;46.748;8.102;2023-02-01T17:26:40;2.70;;;1.90;;
15573;SDS011;7888;46.748;8.102;2023-02-01T17:29:07;2.00;;;1.80;;
15573;SDS011;7888;46.748;8.102;2023-02-01T17:31:38;1.70;;;1.40;;
15573;SDS011;7888;46.748;8.102;2023-02-01T17:34:08;1.87;;;1.50;;
15573;SDS011;7888;46.748;8.102;2023-02-01T17:36:36;1.30;;;1.20;;
15573;SDS011;7888;46.748;8.102;2023-02-01T17:39:03;1.00;;;0.90;;
15573;SDS011;7888;46.748;8.102;2023-02-01T17:41:29;1.70;;;1.23;;
15573;SDS011;7888;46.748;8.102;2023-02-01T17:43:56;1.60;;;1.40;;
15573;SDS011;7888;46.748;8.102;2023-02-01T17:46:21;1.40;;;1.30;;
15573;SDS011;7888;46.748;8.102;2023-02-01T17:48:51;1.43;;;1.33;;
15573;SDS011;7888;46.748;8.102;2023-02-01T17:51:22;1.03;;;0.93;;
15573;SDS011;7888;46.748;8.102;2023-02-01T17:53:52;1.23;;;1.13;;
15573;SDS011;7888;46.748;8.102;2023-02-01T17:56:20;1.20;;;1.10;;
15573;SDS011;7888;46.748;8.102;2023-02-01T17:58:48;1.50;;;1.37;;
15573;SDS011;7888;46.748;8.102;2023-02-01T18:01:18;2.07;;;1.10;;
15573;SDS011;7888;46.748;8.102;2023-02-01T18:03:47;1.10;;;1.00;;
15573;SDS011;7888;46.748;8.102;2023-02-01T18:06:15;1.50;;;1.10;;
15573;SDS011;7888;46.748;8.102;2023-02-01T18:08:44;1.73;;;1.20;;
15573;SDS011;7888;46.748;8.102;2023-02-01T18:11:12;1.87;;;1.10;;
15573;SDS011;7888;46.748;8.102;2023-02-01T18:13:43;1.10;;;1.00;;
15573;SDS011;7888;46.748;8.102;2023-02-01T18:16:31;1.57;;;1.20;;
15573;SDS011;7888;46.748;8.102;2023-02-01T18:18:58;1.00;;;0.90;;
15573;SDS011;7888;46.748;8.102;2023-02-01T18:21:32;1.20;;;1.00;;
15573;SDS011;7888;46.748;8.102;2023-02-01T18:24:13;1.20;;;1.10;;